createdAt,value
2023-01-17T00:00:01.009Z,3.13
2023-01-17T00:05:00.415Z,3.16
2023-01-17T00:10:05.080Z,3.14
2023-01-17T00:15:00.844Z,3.06
2023-01-17T00:20:00.405Z,2.79
2023-01-17T00:25:00.404Z,2.35
2023-01-17T00:30:00.394Z,2.08
2023-01-17T00:35:00.407Z,1.88
2023-01-17T00:40:00.415Z,1.76
2023-01-17T00:45:00.406Z,1.74
2023-01-17T00:50:00.435Z,1.81
2023-01-17T00:55:00.380Z,1.84
2023-01-17T01:00:01.123Z,1.73
2023-01-17T01:05:00.721Z,1.54
2023-01-17T01:10:00.386Z,1.48
2023-01-17T01:15:00.435Z,1.34
2023-01-17T01:20:00.469Z,1.24
2023-01-17T01:25:00.517Z,1.16
2023-01-17T01:30:00.716Z,1.09
2023-01-17T01:35:00.425Z,1.03
2023-01-17T01:40:00.548Z,0.94
2023-01-17T01:45:11.931Z,0.87
2023-01-17T01:50:04.399Z,0.78
2023-01-17T01:55:05.931Z,0.68
2023-01-17T02:00:08.457Z,0.66
2023-01-17T02:05:01.971Z,0.63
2023-01-17T02:10:02.183Z,0.69
2023-01-17T02:15:01.621Z,0.77
2023-01-17T02:20:07.748Z,0.89
2023-01-17T02:25:16.382Z,1.04
2023-01-17T02:30:20.281Z,1.19
2023-01-17T02:35:06.440Z,1.24
2023-01-17T02:40:10.335Z,1.07
2023-01-17T02:45:01.722Z,0.96
2023-01-17T02:50:07.695Z,0.84
2023-01-17T02:55:10.338Z,0.76
2023-01-17T03:00:14.149Z,0.69
2023-01-17T03:05:11.216Z,0.64
2023-01-17T03:10:02.647Z,0.56
2023-01-17T03:15:00.523Z,0.47
2023-01-17T03:20:00.396Z,0.46
2023-01-17T03:25:00.382Z,0.52
2023-01-17T03:30:00.392Z,0.58
2023-01-17T03:35:00.426Z,0.64
2023-01-17T03:40:00.391Z,0.69
2023-01-17T03:45:00.399Z,0.72
2023-01-17T03:50:00.725Z,0.77
2023-01-17T03:55:00.485Z,0.83
2023-01-17T04:00:01.128Z,0.84
2023-01-17T04:05:00.454Z,0.87
2023-01-17T04:10:00.541Z,0.82
2023-01-17T04:15:00.448Z,0.75
2023-01-17T04:20:00.442Z,0.65
2023-01-17T04:25:00.383Z,0.56
2023-01-17T04:30:00.393Z,0.55
2023-01-17T04:35:00.406Z,0.60
2023-01-17T04:40:00.499Z,0.68
2023-01-17T04:45:00.405Z,0.71
2023-01-17T04:50:00.563Z,0.71
2023-01-17T04:55:00.417Z,0.71
2023-01-17T05:00:00.959Z,0.72
2023-01-17T05:05:00.424Z,0.71
2023-01-17T05:10:00.669Z,0.69
2023-01-17T05:15:00.457Z,0.64
2023-01-17T05:20:00.397Z,0.56
2023-01-17T05:25:00.377Z,0.48
2023-01-17T05:30:00.386Z,0.44
2023-01-17T05:35:00.395Z,0.39
2023-01-17T05:40:00.462Z,0.36
2023-01-17T05:45:00.402Z,0.35
2023-01-17T05:50:00.405Z,0.36
2023-01-17T05:55:00.398Z,0.34
2023-01-17T06:00:01.433Z,0.35
2023-01-17T06:05:03.274Z,0.35
2023-01-17T06:10:00.505Z,0.37
2023-01-17T06:15:00.454Z,0.36
2023-01-17T06:20:00.473Z,0.36
2023-01-17T06:25:00.427Z,0.33
2023-01-17T06:30:01.000Z,0.33
2023-01-17T06:35:00.417Z,0.31
2023-01-17T06:40:00.464Z,0.29
2023-01-17T06:45:00.416Z,0.25
2023-01-17T06:50:00.391Z,0.24
2023-01-17T06:55:00.489Z,0.23
2023-01-17T07:00:02.327Z,0.22
2023-01-17T07:05:00.388Z,0.19
2023-01-17T07:10:00.420Z,0.18
2023-01-17T07:15:00.407Z,0.17
2023-01-17T07:20:00.437Z,0.18
2023-01-17T07:25:00.389Z,0.16
2023-01-17T07:30:00.474Z,0.16
2023-01-17T07:35:00.390Z,0.16
2023-01-17T07:40:00.422Z,0.14
2023-01-17T07:45:00.432Z,0.09
2023-01-17T07:50:00.468Z,0.09
2023-01-17T07:55:00.426Z,0.11
2023-01-17T08:00:01.677Z,0.11
2023-01-17T08:05:00.417Z,0.12
2023-01-17T08:10:00.580Z,0.15
2023-01-17T08:15:00.424Z,0.20
2023-01-17T08:20:00.414Z,0.28
2023-01-17T08:25:00.466Z,0.30
2023-01-17T08:30:00.630Z,0.33
2023-01-17T08:35:00.462Z,0.30
2023-01-17T08:40:00.420Z,0.37
2023-01-17T08:45:00.437Z,0.37
2023-01-17T08:50:00.643Z,0.42
2023-01-17T08:55:00.903Z,0.51
2023-01-17T09:00:02.520Z,0.66
2023-01-17T09:05:00.784Z,0.95
2023-01-17T09:10:00.441Z,1.23
2023-01-17T09:15:00.415Z,1.24
2023-01-17T09:20:00.487Z,1.33
2023-01-17T09:25:00.395Z,1.40
2023-01-17T09:30:00.515Z,1.68
2023-01-17T09:35:00.395Z,1.69
2023-01-17T09:40:00.425Z,1.68
2023-01-17T09:45:00.635Z,1.68
2023-01-17T09:50:17.884Z,1.57
2023-01-17T09:55:00.444Z,1.58
2023-01-17T10:00:21.391Z,1.66
2023-01-17T10:05:15.111Z,1.78
2023-01-17T10:10:04.765Z,1.84
2023-01-17T10:15:10.357Z,1.92
2023-01-17T10:20:10.524Z,2.05
2023-01-17T10:25:11.361Z,1.96
2023-01-17T10:30:09.948Z,1.95
2023-01-17T10:35:14.971Z,1.95
2023-01-17T10:40:12.919Z,1.77
2023-01-17T10:45:06.426Z,1.72
2023-01-17T10:50:03.281Z,1.61
2023-01-17T10:55:18.759Z,1.53
2023-01-17T11:00:10.789Z,1.56
2023-01-17T11:05:11.971Z,1.53
2023-01-17T11:15:02.750Z,3.28
2023-01-17T11:20:11.446Z,4.07
2023-01-17T11:25:00.846Z,5.01
2023-01-17T11:30:03.995Z,5.03
2023-01-17T11:35:12.860Z,4.58
2023-01-17T11:45:20.455Z,3.55
2023-01-17T11:50:00.553Z,3.38
2023-01-17T11:55:00.749Z,3.38
2023-01-17T12:00:10.655Z,4.10
2023-01-17T12:05:07.748Z,4.24
2023-01-17T12:10:16.114Z,4.61
2023-01-17T12:15:13.787Z,4.93
2023-01-17T12:20:02.767Z,4.82
2023-01-17T12:25:08.304Z,4.73
2023-01-17T12:30:20.447Z,4.51
2023-01-17T12:35:14.103Z,4.47
2023-01-17T12:40:05.393Z,4.59
2023-01-17T12:45:06.418Z,4.63
2023-01-17T12:50:18.041Z,4.71
2023-01-17T12:55:08.648Z,4.67
2023-01-17T13:00:07.101Z,4.74
2023-01-17T13:05:10.543Z,4.81
2023-01-17T13:10:14.952Z,4.89
2023-01-17T13:15:00.777Z,4.89
2023-01-17T13:20:13.807Z,4.82
2023-01-17T13:25:10.564Z,4.67
2023-01-17T13:30:10.654Z,4.64
2023-01-17T13:35:13.851Z,4.68
2023-01-17T13:40:20.475Z,4.62
2023-01-17T13:45:07.086Z,4.58
2023-01-17T13:50:00.692Z,4.61
2023-01-17T13:55:04.023Z,4.59
2023-01-17T14:00:11.536Z,4.55
2023-01-17T14:05:11.532Z,4.55
2023-01-17T14:10:10.870Z,4.52
2023-01-17T14:15:01.342Z,4.49
2023-01-17T14:20:03.848Z,4.28
2023-01-17T14:25:10.478Z,4.01
2023-01-17T14:30:05.751Z,3.85
2023-01-17T14:35:01.566Z,3.77
2023-01-17T14:40:00.798Z,3.75
2023-01-17T14:45:05.972Z,3.70
2023-01-17T14:50:10.797Z,3.58
2023-01-17T14:55:12.533Z,3.47
2023-01-17T15:00:11.945Z,3.41
2023-01-17T15:05:00.675Z,3.32
2023-01-17T15:10:01.891Z,3.22
2023-01-17T15:15:00.615Z,3.07
2023-01-17T15:20:03.947Z,2.96
2023-01-17T15:25:01.241Z,2.90
2023-01-17T15:35:00.658Z,2.63
2023-01-17T15:40:19.634Z,2.40
2023-01-17T15:45:03.765Z,2.31
2023-01-17T15:50:11.513Z,2.18
2023-01-17T15:55:11.686Z,2.02
2023-01-17T16:00:04.845Z,1.87
2023-01-17T16:05:12.533Z,1.73
2023-01-17T16:10:04.350Z,1.65
2023-01-17T16:15:11.642Z,1.54
2023-01-17T16:20:00.981Z,1.43
2023-01-17T16:25:00.937Z,1.34
2023-01-17T16:30:00.623Z,1.25
2023-01-17T16:35:00.673Z,1.15
2023-01-17T16:40:00.678Z,1.05
2023-01-17T16:45:00.561Z,1.01
2023-01-17T16:50:00.744Z,0.94
2023-01-17T16:55:00.594Z,0.89
2023-01-17T17:00:02.966Z,0.84
2023-01-17T17:05:00.578Z,0.80
2023-01-17T17:10:00.588Z,0.77
2023-01-17T17:15:00.574Z,0.72
2023-01-17T17:20:00.806Z,0.65
2023-01-17T17:25:00.558Z,0.59
2023-01-17T17:30:00.620Z,0.57
2023-01-17T17:35:00.626Z,0.52
2023-01-17T17:40:00.586Z,0.46
2023-01-17T17:45:00.614Z,0.39
2023-01-17T17:50:00.623Z,0.36
2023-01-17T17:55:00.726Z,0.37
2023-01-17T18:00:01.203Z,0.42
2023-01-17T18:05:00.639Z,0.44
2023-01-17T18:10:00.592Z,0.47
2023-01-17T18:15:00.583Z,0.44
2023-01-17T18:20:00.654Z,0.47
2023-01-17T18:25:00.594Z,0.49
2023-01-17T18:30:00.585Z,0.46
2023-01-17T18:35:00.574Z,0.44
2023-01-17T18:40:00.562Z,0.42
2023-01-17T18:45:00.646Z,0.38
2023-01-17T18:50:00.565Z,0.33
2023-01-17T18:55:00.608Z,0.27
2023-01-17T19:00:01.124Z,0.19
2023-01-17T19:05:00.615Z,0.10
2023-01-17T19:10:00.564Z,0.01
2023-01-17T19:15:00.553Z,-0.07
2023-01-17T19:20:00.591Z,-0.13
2023-01-17T19:25:00.545Z,-0.17
2023-01-17T19:30:00.606Z,-0.21
2023-01-17T19:35:00.592Z,-0.23
2023-01-17T19:40:00.580Z,-0.23
2023-01-17T19:45:00.585Z,-0.25
2023-01-17T19:50:00.816Z,-0.29
2023-01-17T19:55:00.992Z,-0.34
2023-01-17T20:00:04.444Z,-0.38
2023-01-17T20:05:00.827Z,-0.39
2023-01-17T20:10:00.599Z,-0.43
2023-01-17T20:15:00.583Z,-0.45
2023-01-17T20:20:00.626Z,-0.49
2023-01-17T20:25:00.563Z,-0.51
2023-01-17T20:30:11.058Z,-0.57
2023-01-17T20:35:00.578Z,-0.62
2023-01-17T20:40:00.566Z,-0.65
2023-01-17T20:45:00.626Z,-0.66
2023-01-17T20:50:00.623Z,-0.67
2023-01-17T20:55:00.561Z,-0.67
2023-01-17T21:00:02.145Z,-0.70
2023-01-17T21:05:00.583Z,-0.72
2023-01-17T21:10:00.560Z,-0.72
2023-01-17T21:15:00.608Z,-0.71
2023-01-17T21:20:00.614Z,-0.70
2023-01-17T21:25:00.569Z,-0.72
2023-01-17T21:30:00.616Z,-0.77
2023-01-17T21:35:00.581Z,-0.82
2023-01-17T21:40:00.612Z,-0.91
2023-01-17T21:45:00.553Z,-1.03
2023-01-17T21:50:00.597Z,-1.07
2023-01-17T21:55:00.609Z,-1.03
2023-01-17T22:00:01.600Z,-0.99
2023-01-17T22:05:00.615Z,-0.91
2023-01-17T22:10:00.578Z,-0.87
2023-01-17T22:15:00.570Z,-0.84
2023-01-17T22:20:00.635Z,-0.74
2023-01-17T22:25:00.626Z,-0.72
2023-01-17T22:30:00.576Z,-0.75
2023-01-17T22:35:00.609Z,-0.87
2023-01-17T22:40:00.728Z,-0.99
2023-01-17T22:45:00.955Z,-1.05
2023-01-17T22:50:00.745Z,-1.11
2023-01-17T22:55:00.608Z,-1.15
2023-01-17T23:00:02.932Z,-1.17
2023-01-17T23:05:00.681Z,-1.17
2023-01-17T23:10:00.546Z,-1.19
2023-01-17T23:15:00.572Z,-1.25
2023-01-17T23:20:00.903Z,-1.32
2023-01-17T23:25:10.270Z,-1.35
2023-01-17T23:30:00.938Z,-1.36
2023-01-17T23:35:00.682Z,-1.36
2023-01-17T23:40:00.576Z,-1.38
2023-01-17T23:45:00.570Z,-1.44
2023-01-17T23:50:00.592Z,-1.48
2023-01-17T23:55:00.553Z,-1.56
